Time;durP1;ratioP1;P1;durP2;ratioP2;P2;SDS_P1;SDS_P2;PMS_P1;PMS_P2;Temp;Humidity;BMP_temperature;BMP_pressure;BME280_temperature;BME280_humidity;BME280_pressure;Samples;Min_cycle;Max_cycle;Signal;HPM_P1;HPM_P2
2022/07/08 00:02:21;;;;;;;5.95;1.52;;;;;;;;;;10362716;28;20040;-59
2022/07/08 00:07:21;;;;;;;3.50;1.42;;;;;;;;;;10358453;28;20461;-60
2022/07/08 00:12:22;;;;;;;2.53;1.17;;;;;;;;;;10367758;28;20034;-60
2022/07/08 00:17:23;;;;;;;2.47;1.08;;;;;;;;;;10371025;28;20030;-59
2022/07/08 00:22:24;;;;;;;2.90;1.10;;;;;;;;;;10355416;28;20030;-60
2022/07/08 00:27:25;;;;;;;6.15;1.50;;;;;;;;;;10363644;28;20414;-60
2022/07/08 00:32:26;;;;;;;3.72;1.17;;;;;;;;;;10363526;28;20113;-60
2022/07/08 00:37:27;;;;;;;5.68;1.63;;;;;;;;;;10366358;28;20044;-59
2022/07/08 00:42:27;;;;;;;2.28;1.00;;;;;;;;;;10364096;28;20038;-59
2022/07/08 00:47:28;;;;;;;2.85;1.20;;;;;;;;;;10368426;28;20550;-59
2022/07/08 00:52:28;;;;;;;3.72;1.20;;;;;;;;;;10368691;28;20034;-59
2022/07/08 00:57:29;;;;;;;2.28;1.08;;;;;;;;;;10361653;28;20062;-59
2022/07/08 01:02:30;;;;;;;2.78;1.15;;;;;;;;;;10370783;28;20037;-59
2022/07/08 01:07:31;;;;;;;3.00;1.10;;;;;;;;;;10371461;28;20034;-59
2022/07/08 01:12:32;;;;;;;2.15;0.95;;;;;;;;;;10357422;28;20099;-59
2022/07/08 01:17:45;;;;;;;2.35;1.05;;;;;;;;;;10368847;28;20441;-59
2022/07/08 01:22:46;;;;;;;2.17;1.20;;;;;;;;;;10361982;28;20390;-59
2022/07/08 01:27:46;;;;;;;4.32;0.90;;;;;;;;;;10366467;28;20057;-58
2022/07/08 01:32:47;;;;;;;2.88;1.15;;;;;;;;;;10368492;28;20022;-59
2022/07/08 01:37:48;;;;;;;4.53;1.10;;;;;;;;;;10369776;28;20048;-58
2022/07/08 01:42:48;;;;;;;2.97;1.00;;;;;;;;;;10356661;28;20042;-60
2022/07/08 01:47:49;;;;;;;5.85;1.40;;;;;;;;;;10363627;28;20033;-58
2022/07/08 01:52:49;;;;;;;4.63;1.20;;;;;;;;;;10369710;28;20444;-58
2022/07/08 01:57:50;;;;;;;3.95;1.00;;;;;;;;;;10359642;28;20034;-58
2022/07/08 02:02:51;;;;;;;3.00;1.00;;;;;;;;;;10358435;28;20041;-57
2022/07/08 02:07:52;;;;;;;5.30;1.60;;;;;;;;;;10357557;28;20397;-58
2022/07/08 02:12:53;;;;;;;5.07;1.17;;;;;;;;;;10368008;28;20492;-59
2022/07/08 02:17:54;;;;;;;7.25;1.10;;;;;;;;;;10368442;28;20030;-59
2022/07/08 02:22:54;;;;;;;1.10;0.90;;;;;;;;;;10349465;28;20049;-59
2022/07/08 02:27:55;;;;;;;1.33;1.00;;;;;;;;;;10367067;28;20181;-59
2022/07/08 02:32:55;;;;;;;5.78;1.10;;;;;;;;;;10363153;28;20026;-59
2022/07/08 02:37:56;;;;;;;1.80;0.85;;;;;;;;;;10365284;28;20034;-59
2022/07/08 02:42:56;;;;;;;1.20;0.80;;;;;;;;;;10366075;28;20034;-60
2022/07/08 02:47:57;;;;;;;5.55;1.05;;;;;;;;;;10366654;28;20131;-59
2022/07/08 02:52:57;;;;;;;1.25;0.73;;;;;;;;;;10363156;28;20022;-59
2022/07/08 02:57:58;;;;;;;1.97;1.00;;;;;;;;;;10363339;28;20032;-58
2022/07/08 03:02:58;;;;;;;1.42;0.90;;;;;;;;;;10351628;28;20472;-59
2022/07/08 03:07:59;;;;;;;1.42;1.10;;;;;;;;;;10363713;28;20496;-58
2022/07/08 03:12:59;;;;;;;5.03;1.15;;;;;;;;;;10355855;28;20478;-58
2022/07/08 03:18:00;;;;;;;5.43;0.98;;;;;;;;;;10364616;28;20484;-59
2022/07/08 03:23:01;;;;;;;1.30;1.00;;;;;;;;;;10355697;28;20434;-58
2022/07/08 03:28:02;;;;;;;5.40;1.27;;;;;;;;;;10352961;28;20177;-59
2022/07/08 03:33:02;;;;;;;4.20;1.25;;;;;;;;;;10362305;28;20269;-57
2022/07/08 03:38:03;;;;;;;2.05;0.88;;;;;;;;;;10343195;28;20355;-54
2022/07/08 03:43:04;;;;;;;4.57;1.30;;;;;;;;;;10365753;28;20085;-57
2022/07/08 03:48:04;;;;;;;2.58;1.10;;;;;;;;;;10372008;28;20037;-54
2022/07/08 03:53:05;;;;;;;3.50;0.90;;;;;;;;;;10370931;28;20041;-55
2022/07/08 03:58:06;;;;;;;1.90;0.80;;;;;;;;;;10374446;28;20100;-58
2022/07/08 04:03:06;;;;;;;1.25;1.05;;;;;;;;;;10372958;28;20500;-58
2022/07/08 04:08:07;;;;;;;2.67;1.10;;;;;;;;;;10353116;28;20034;-53
2022/07/08 04:13:08;;;;;;;1.27;0.85;;;;;;;;;;10349329;28;20389;-58
2022/07/08 04:18:08;;;;;;;2.28;0.95;;;;;;;;;;10358819;28;20034;-53
2022/07/08 04:23:09;;;;;;;1.63;1.10;;;;;;;;;;10346117;28;20022;-54
2022/07/08 04:28:11;;;;;;;2.13;1.00;;;;;;;;;;10371386;28;20412;-53
2022/07/08 04:33:12;;;;;;;4.97;1.23;;;;;;;;;;10360138;28;20084;-57
2022/07/08 04:38:12;;;;;;;2.72;1.20;;;;;;;;;;10357968;28;20061;-57
2022/07/08 04:43:13;;;;;;;5.45;0.80;;;;;;;;;;10350111;28;20526;-50
2022/07/08 04:48:13;;;;;;;3.10;0.90;;;;;;;;;;10364237;28;20497;-52
2022/07/08 04:53:14;;;;;;;2.92;0.80;;;;;;;;;;10365627;28;20158;-55
2022/07/08 04:58:15;;;;;;;3.13;0.77;;;;;;;;;;10361698;28;20041;-56
2022/07/08 05:03:15;;;;;;;9.50;1.83;;;;;;;;;;10364662;28;20398;-49
2022/07/08 05:08:16;;;;;;;12.00;1.10;;;;;;;;;;10375358;28;20156;-56
2022/07/08 05:13:16;;;;;;;2.40;0.88;;;;;;;;;;10347577;28;20190;-60
2022/07/08 05:18:17;;;;;;;4.68;1.20;;;;;;;;;;10346686;28;20030;-62
2022/07/08 05:23:18;;;;;;;4.43;1.48;;;;;;;;;;10359925;23;20615;-56
2022/07/08 05:28:18;;;;;;;4.22;1.65;;;;;;;;;;10397095;28;20473;-55
2022/07/08 05:33:19;;;;;;;7.13;2.30;;;;;;;;;;10376510;28;20030;-57
2022/07/08 05:38:19;;;;;;;6.82;1.70;;;;;;;;;;10366104;28;20033;-54
2022/07/08 05:43:20;;;;;;;5.50;1.63;;;;;;;;;;10369023;28;20029;-53
2022/07/08 05:48:22;;;;;;;8.38;2.00;;;;;;;;;;10378413;28;20049;-53
2022/07/08 05:53:22;;;;;;;9.45;2.10;;;;;;;;;;10359709;28;20037;-57
2022/07/08 05:58:23;;;;;;;6.65;1.90;;;;;;;;;;10361396;28;20381;-55
2022/07/08 06:03:23;;;;;;;5.03;1.92;;;;;;;;;;10365460;28;20120;-54
2022/07/08 06:08:24;;;;;;;6.80;2.00;;;;;;;;;;10355557;28;20046;-54
2022/07/08 06:13:24;;;;;;;12.35;2.55;;;;;;;;;;10365519;28;20042;-55
2022/07/08 06:18:25;;;;;;;12.10;2.40;;;;;;;;;;10366836;28;20375;-55
2022/07/08 06:23:26;;;;;;;22.98;3.15;;;;;;;;;;10357129;28;20045;-54
2022/07/08 06:28:27;;;;;;;8.98;2.40;;;;;;;;;;10365134;28;20037;-55
2022/07/08 06:33:27;;;;;;;13.95;2.17;;;;;;;;;;10367991;28;20044;-54
2022/07/08 06:38:28;;;;;;;14.20;2.13;;;;;;;;;;10379562;28;20034;-56
2022/07/08 06:43:28;;;;;;;11.43;2.17;;;;;;;;;;10347338;28;20030;-55
2022/07/08 06:48:29;;;;;;;7.65;1.52;;;;;;;;;;10357955;28;20100;-56
2022/07/08 06:58:49;;;;;;;15.32;2.22;;;;;;;;;;10357039;28;20117;-56
2022/07/08 07:03:49;;;;;;;4.40;1.95;;;;;;;;;;10366569;28;20034;-57
2022/07/08 07:08:50;;;;;;;8.82;1.58;;;;;;;;;;10366445;28;20465;-55
2022/07/08 07:13:51;;;;;;;6.20;1.77;;;;;;;;;;10366704;28;20029;-56
2022/07/08 07:18:52;;;;;;;5.10;1.73;;;;;;;;;;10360019;28;20500;-55
2022/07/08 07:23:52;;;;;;;3.67;1.50;;;;;;;;;;10360180;28;20057;-57
2022/07/08 07:28:54;;;;;;;2.15;1.40;;;;;;;;;;10363557;28;20022;-56
2022/07/08 07:33:55;;;;;;;3.85;1.10;;;;;;;;;;10357522;28;20037;-57
2022/07/08 07:38:56;;;;;;;5.28;1.55;;;;;;;;;;10342226;28;20045;-56
2022/07/08 07:43:56;;;;;;;3.45;1.52;;;;;;;;;;10360836;28;20061;-56
2022/07/08 07:48:57;;;;;;;2.75;1.58;;;;;;;;;;10364393;28;20034;-55
2022/07/08 07:53:57;;;;;;;4.60;1.38;;;;;;;;;;10360376;28;20455;-56
2022/07/08 07:58:58;;;;;;;3.83;1.50;;;;;;;;;;10364426;28;20037;-57
2022/07/08 08:03:59;;;;;;;3.08;1.00;;;;;;;;;;10358317;28;20421;-56
2022/07/08 08:08:59;;;;;;;1.77;1.20;;;;;;;;;;10357180;28;20076;-55
2022/07/08 08:14:00;;;;;;;2.92;1.55;;;;;;;;;;10355148;28;20030;-56
2022/07/08 08:19:00;;;;;;;3.42;1.45;;;;;;;;;;10361589;28;20026;-56
2022/07/08 08:24:01;;;;;;;2.13;1.23;;;;;;;;;;10360953;28;20437;-55
2022/07/08 08:29:02;;;;;;;2.55;1.25;;;;;;;;;;10351828;28;20284;-56
2022/07/08 08:34:03;;;;;;;2.05;1.20;;;;;;;;;;10353665;28;20246;-56
2022/07/08 08:39:03;;;;;;;4.65;1.10;;;;;;;;;;10347761;28;20015;-57
2022/07/08 08:44:04;;;;;;;1.90;1.20;;;;;;;;;;10362423;28;20029;-56
2022/07/08 08:49:05;;;;;;;4.22;1.30;;;;;;;;;;10367824;28;20028;-55
2022/07/08 08:54:06;;;;;;;2.13;1.00;;;;;;;;;;10379323;28;20042;-57
2022/07/08 08:59:08;;;;;;;5.43;1.20;;;;;;;;;;10369517;28;20030;-57
2022/07/08 09:04:10;;;;;;;1.98;1.13;;;;;;;;;;10356723;28;20366;-56
2022/07/08 09:09:10;;;;;;;3.20;1.15;;;;;;;;;;10356073;28;20092;-57
2022/07/08 09:14:20;;;;;;;2.42;1.27;;;;;;;;;;10365485;28;20041;-55
2022/07/08 09:19:24;;;;;;;3.95;1.05;;;;;;;;;;10363822;28;20026;-55
2022/07/08 09:24:27;;;;;;;4.28;1.13;;;;;;;;;;10364716;28;20048;-57
2022/07/08 09:29:28;;;;;;;1.30;0.90;;;;;;;;;;10363177;28;20054;-57
2022/07/08 09:34:28;;;;;;;3.72;1.00;;;;;;;;;;10363023;28;20017;-57
2022/07/08 09:39:29;;;;;;;1.13;1.02;;;;;;;;;;10368750;28;20021;-55
2022/07/08 09:44:30;;;;;;;2.10;1.00;;;;;;;;;;10371698;28;20028;-55
2022/07/08 09:49:34;;;;;;;1.85;1.10;;;;;;;;;;10363735;28;20038;-56
2022/07/08 09:54:35;;;;;;;1.35;0.85;;;;;;;;;;10368054;28;20029;-57
2022/07/08 09:59:36;;;;;;;1.35;0.95;;;;;;;;;;10361617;28;20041;-55
2022/07/08 10:04:37;;;;;;;1.25;1.08;;;;;;;;;;10358365;28;20027;-57
2022/07/08 10:09:37;;;;;;;4.40;1.05;;;;;;;;;;10363060;28;20030;-55
2022/07/08 10:14:38;;;;;;;1.70;0.88;;;;;;;;;;10360573;28;20025;-56
2022/07/08 10:19:39;;;;;;;1.83;0.93;;;;;;;;;;10364299;28;20437;-55
2022/07/08 10:24:42;;;;;;;1.58;1.15;;;;;;;;;;10364112;28;20081;-56
2022/07/08 10:29:42;;;;;;;2.53;1.10;;;;;;;;;;10367229;28;20053;-57
2022/07/08 10:34:43;;;;;;;1.55;0.93;;;;;;;;;;10362050;28;20026;-55
2022/07/08 10:39:46;;;;;;;1.10;1.00;;;;;;;;;;10338184;28;20025;-55
2022/07/08 10:44:48;;;;;;;2.35;0.82;;;;;;;;;;10351670;28;20088;-56
2022/07/08 10:49:49;;;;;;;0.98;0.80;;;;;;;;;;10351715;28;20535;-56
2022/07/08 10:55:15;;;;;;;0.98;0.93;;;;;;;;;;10357298;28;20044;-56
2022/07/08 11:00:16;;;;;;;1.55;1.10;;;;;;;;;;10355046;28;20037;-57
2022/07/08 11:05:39;;;;;;;1.08;0.88;;;;;;;;;;10355901;28;20593;-56
2022/07/08 11:10:42;;;;;;;0.98;0.90;;;;;;;;;;10356235;28;20026;-55
2022/07/08 11:15:43;;;;;;;1.48;0.82;;;;;;;;;;10362139;28;20381;-56
2022/07/08 11:20:43;;;;;;;1.05;0.98;;;;;;;;;;10346669;28;20033;-57
2022/07/08 11:25:46;;;;;;;1.70;1.10;;;;;;;;;;10345627;28;20076;-57
2022/07/08 11:30:47;;;;;;;0.95;0.93;;;;;;;;;;10357409;28;20044;-56
2022/07/08 11:35:48;;;;;;;2.22;1.17;;;;;;;;;;10350013;28;20312;-58
2022/07/08 11:40:49;;;;;;;1.73;1.00;;;;;;;;;;10357330;28;20543;-57
2022/07/08 11:45:50;;;;;;;1.63;0.90;;;;;;;;;;10361443;28;20041;-57
2022/07/08 11:50:52;;;;;;;1.55;0.98;;;;;;;;;;10355546;28;20030;-56
2022/07/08 11:55:52;;;;;;;1.85;1.00;;;;;;;;;;10363660;28;20131;-56
2022/07/08 12:00:54;;;;;;;1.50;1.02;;;;;;;;;;10356924;28;20038;-56
2022/07/08 12:05:55;;;;;;;0.90;0.77;;;;;;;;;;10362653;28;20596;-56
2022/07/08 12:11:17;;;;;;;3.40;1.20;;;;;;;;;;10366972;28;20030;-56
2022/07/08 12:16:32;;;;;;;2.20;0.77;;;;;;;;;;10368226;28;20112;-55
2022/07/08 12:21:33;;;;;;;2.83;1.15;;;;;;;;;;10360757;28;20075;-56
2022/07/08 12:26:34;;;;;;;2.35;1.00;;;;;;;;;;10363209;28;20115;-56
2022/07/08 12:31:38;;;;;;;1.90;0.90;;;;;;;;;;10363679;28;20030;-57
2022/07/08 12:36:38;;;;;;;5.72;1.10;;;;;;;;;;10368703;28;20030;-55
2022/07/08 12:41:40;;;;;;;1.73;0.90;;;;;;;;;;10371819;28;20469;-56
2022/07/08 12:46:41;;;;;;;3.25;1.20;;;;;;;;;;10381507;28;20033;-55
2022/07/08 12:51:41;;;;;;;9.65;1.27;;;;;;;;;;10367607;28;20022;-56
2022/07/08 12:56:42;;;;;;;10.60;1.10;;;;;;;;;;10364851;28;20029;-55
2022/07/08 13:01:43;;;;;;;9.70;1.50;;;;;;;;;;10392862;28;20037;-57
2022/07/08 13:06:45;;;;;;;11.00;1.70;;;;;;;;;;10370198;28;20386;-56
2022/07/08 13:11:47;;;;;;;8.80;1.60;;;;;;;;;;10353918;28;20398;-54
2022/07/08 13:16:48;;;;;;;14.75;2.03;;;;;;;;;;10372913;28;20021;-56
2022/07/08 13:21:49;;;;;;;6.47;1.65;;;;;;;;;;10357440;28;20080;-56
2022/07/08 13:26:50;;;;;;;6.80;1.80;;;;;;;;;;10362684;28;20064;-56
2022/07/08 13:31:50;;;;;;;8.27;1.25;;;;;;;;;;10358873;28;20033;-55
2022/07/08 13:36:51;;;;;;;6.03;1.30;;;;;;;;;;10361963;28;20378;-56
2022/07/08 13:41:52;;;;;;;10.57;1.83;;;;;;;;;;10356370;28;20199;-56
2022/07/08 13:46:52;;;;;;;5.40;1.17;;;;;;;;;;10363092;28;20421;-56
2022/07/08 13:51:53;;;;;;;5.13;1.20;;;;;;;;;;10352650;28;20030;-56
2022/07/08 13:56:54;;;;;;;5.65;1.23;;;;;;;;;;10361015;28;20036;-55
2022/07/08 14:01:54;;;;;;;5.60;1.30;;;;;;;;;;10366361;28;20373;-56
2022/07/08 14:06:55;;;;;;;1.92;0.82;;;;;;;;;;10365768;28;20030;-54
2022/07/08 14:11:55;;;;;;;6.25;1.27;;;;;;;;;;10360802;28;20032;-56
2022/07/08 14:16:57;;;;;;;6.57;1.13;;;;;;;;;;10365823;28;20026;-55
2022/07/08 14:21:58;;;;;;;5.57;1.05;;;;;;;;;;10359742;28;20438;-56
2022/07/08 14:26:59;;;;;;;5.60;1.10;;;;;;;;;;10367280;28;20046;-57
2022/07/08 14:31:59;;;;;;;3.33;1.05;;;;;;;;;;10353651;28;20101;-53
2022/07/08 14:37:00;;;;;;;6.35;1.30;;;;;;;;;;10360349;28;20029;-56
2022/07/08 14:42:00;;;;;;;7.68;1.40;;;;;;;;;;10347799;28;20038;-57
2022/07/08 14:47:01;;;;;;;3.70;1.10;;;;;;;;;;10363703;28;20034;-57
2022/07/08 14:52:02;;;;;;;11.98;1.60;;;;;;;;;;10350187;28;20034;-56
2022/07/08 14:57:04;;;;;;;10.10;1.80;;;;;;;;;;10358458;28;20037;-56
2022/07/08 15:02:04;;;;;;;7.07;1.45;;;;;;;;;;10358283;28;20350;-57
2022/07/08 15:07:05;;;;;;;4.93;1.23;;;;;;;;;;10354115;28;20041;-54
2022/07/08 15:12:06;;;;;;;7.65;1.90;;;;;;;;;;10356496;28;20048;-54
2022/07/08 15:17:06;;;;;;;10.23;1.73;;;;;;;;;;10360246;28;20059;-56
2022/07/08 15:22:07;;;;;;;6.53;1.42;;;;;;;;;;10360199;28;20044;-55
2022/07/08 15:27:08;;;;;;;10.88;1.98;;;;;;;;;;10351689;28;20057;-56
2022/07/08 15:32:08;;;;;;;19.27;2.53;;;;;;;;;;10349329;28;20034;-55
2022/07/08 15:37:09;;;;;;;20.20;2.60;;;;;;;;;;10352190;28;20479;-56
2022/07/08 15:42:11;;;;;;;11.77;1.65;;;;;;;;;;10356955;28;20389;-57
2022/07/08 15:47:11;;;;;;;9.35;2.00;;;;;;;;;;10357000;28;20520;-56
2022/07/08 15:52:13;;;;;;;23.30;2.53;;;;;;;;;;10361878;28;20033;-56
2022/07/08 15:57:14;;;;;;;7.53;1.92;;;;;;;;;;10363474;28;20396;-56
2022/07/08 16:02:15;;;;;;;10.73;2.13;;;;;;;;;;10349059;28;20030;-56
2022/07/08 16:07:15;;;;;;;11.93;1.80;;;;;;;;;;10364964;28;20036;-55
2022/07/08 16:12:16;;;;;;;10.88;1.83;;;;;;;;;;10352771;28;20489;-56
2022/07/08 16:17:17;;;;;;;12.70;1.92;;;;;;;;;;10360536;28;20105;-56
2022/07/08 16:22:18;;;;;;;5.70;1.60;;;;;;;;;;10359455;28;20026;-56
2022/07/08 16:27:20;;;;;;;8.88;1.20;;;;;;;;;;10351478;28;20046;-55
2022/07/08 16:32:21;;;;;;;9.00;1.45;;;;;;;;;;10363206;28;20113;-56
2022/07/08 16:37:21;;;;;;;4.78;1.17;;;;;;;;;;10357130;28;20049;-57
2022/07/08 16:42:22;;;;;;;4.63;1.10;;;;;;;;;;10360614;28;20032;-55
2022/07/08 16:47:23;;;;;;;5.85;1.15;;;;;;;;;;10363214;28;20173;-55
2022/07/08 16:52:24;;;;;;;7.03;1.17;;;;;;;;;;10356001;28;20034;-57
2022/07/08 16:57:24;;;;;;;5.10;1.10;;;;;;;;;;10359927;28;20033;-56
2022/07/08 17:02:25;;;;;;;2.88;0.85;;;;;;;;;;10366695;28;20029;-56
2022/07/08 17:07:26;;;;;;;3.75;1.15;;;;;;;;;;10370594;28;20350;-55
2022/07/08 17:12:26;;;;;;;3.80;0.90;;;;;;;;;;10359756;28;20224;-56
2022/07/08 17:17:27;;;;;;;3.53;0.98;;;;;;;;;;10365341;28;20017;-56
2022/07/08 17:22:28;;;;;;;2.50;0.80;;;;;;;;;;10370724;28;20026;-56
2022/07/08 17:27:28;;;;;;;1.77;0.82;;;;;;;;;;10367005;28;20508;-56
2022/07/08 17:32:30;;;;;;;0.88;0.88;;;;;;;;;;10370434;28;20364;-56
2022/07/08 17:37:31;;;;;;;1.77;0.80;;;;;;;;;;10360128;28;20018;-57
2022/07/08 17:42:31;;;;;;;3.90;1.10;;;;;;;;;;10369895;28;20411;-55
2022/07/08 17:47:32;;;;;;;1.23;0.70;;;;;;;;;;10359269;28;20040;-57
2022/07/08 17:52:33;;;;;;;2.53;1.05;;;;;;;;;;10347910;28;20041;-55
2022/07/08 17:57:34;;;;;;;1.58;0.82;;;;;;;;;;10371033;28;20567;-56
2022/07/08 18:02:35;;;;;;;10.50;1.65;;;;;;;;;;10366313;28;20021;-58
2022/07/08 18:07:35;;;;;;;7.55;1.33;;;;;;;;;;10356336;28;20462;-56
2022/07/08 18:12:36;;;;;;;4.53;1.00;;;;;;;;;;10364543;28;20509;-58
2022/07/08 18:17:36;;;;;;;2.65;1.00;;;;;;;;;;10364003;28;20029;-57
2022/07/08 18:22:37;;;;;;;2.97;0.98;;;;;;;;;;10366942;28;20061;-58
2022/07/08 18:27:38;;;;;;;4.32;1.17;;;;;;;;;;10365424;28;20045;-57
2022/07/08 18:32:42;;;;;;;1.55;0.80;;;;;;;;;;10362780;28;20022;-57
2022/07/08 18:37:43;;;;;;;4.93;1.00;;;;;;;;;;10354346;28;20073;-58
2022/07/08 18:42:43;;;;;;;11.05;1.08;;;;;;;;;;10359135;28;20033;-58
2022/07/08 18:47:49;;;;;;;6.63;1.30;;;;;;;;;;10358928;28;20021;-57
2022/07/08 18:52:50;;;;;;;5.95;0.90;;;;;;;;;;10350164;28;20040;-59
2022/07/08 18:57:50;;;;;;;2.83;1.10;;;;;;;;;;10358181;28;20611;-58
2022/07/08 19:02:51;;;;;;;3.80;1.10;;;;;;;;;;10361477;28;20890;-58
2022/07/08 19:07:52;;;;;;;4.20;1.40;;;;;;;;;;10359314;28;20137;-57
2022/07/08 19:12:53;;;;;;;1.30;0.73;;;;;;;;;;10354893;28;20030;-56
2022/07/08 19:17:54;;;;;;;2.33;0.88;;;;;;;;;;10348903;28;20142;-56
2022/07/08 19:22:54;;;;;;;3.78;0.85;;;;;;;;;;10360046;28;20041;-57
2022/07/08 19:27:55;;;;;;;5.85;1.52;;;;;;;;;;10366362;28;20440;-57
2022/07/08 19:32:55;;;;;;;3.03;1.10;;;;;;;;;;10366018;28;20034;-57
2022/07/08 19:37:56;;;;;;;2.10;0.90;;;;;;;;;;10345802;28;20023;-58
2022/07/08 19:42:57;;;;;;;2.45;1.10;;;;;;;;;;10341521;28;20026;-58
2022/07/08 19:47:58;;;;;;;1.88;1.02;;;;;;;;;;10342257;28;20629;-57
2022/07/08 19:52:59;;;;;;;2.97;1.00;;;;;;;;;;10344080;28;20061;-57
2022/07/08 19:58:00;;;;;;;9.00;1.55;;;;;;;;;;10353025;28;20563;-58
2022/07/08 20:03:00;;;;;;;4.43;1.15;;;;;;;;;;10360497;28;20473;-58
2022/07/08 20:08:01;;;;;;;4.50;1.25;;;;;;;;;;10357360;28;20045;-57
2022/07/08 20:13:02;;;;;;;2.67;1.00;;;;;;;;;;10359693;28;20080;-58
2022/07/08 20:18:03;;;;;;;2.40;0.77;;;;;;;;;;10352141;28;20041;-58
2022/07/08 20:23:04;;;;;;;5.72;1.20;;;;;;;;;;10358449;28;20034;-58
2022/07/08 20:28:05;;;;;;;5.05;1.17;;;;;;;;;;10361861;28;20038;-57
2022/07/08 20:33:06;;;;;;;1.65;0.90;;;;;;;;;;10368164;28;20516;-58
2022/07/08 20:38:07;;;;;;;2.65;1.15;;;;;;;;;;10361117;28;20037;-58
2022/07/08 20:43:08;;;;;;;4.40;1.20;;;;;;;;;;10355153;28;20106;-58
2022/07/08 20:48:08;;;;;;;2.83;1.08;;;;;;;;;;10361978;28;20037;-57
2022/07/08 20:53:09;;;;;;;1.55;1.08;;;;;;;;;;10367278;28;20034;-57
2022/07/08 20:58:10;;;;;;;4.10;1.27;;;;;;;;;;10367598;28;20026;-58
2022/07/08 21:03:11;;;;;;;5.85;1.35;;;;;;;;;;10365139;28;20030;-58
2022/07/08 21:08:11;;;;;;;10.57;1.67;;;;;;;;;;10365455;28;20022;-58
2022/07/08 21:13:13;;;;;;;2.25;1.33;;;;;;;;;;10367736;28;20045;-57
2022/07/08 21:18:14;;;;;;;4.90;1.23;;;;;;;;;;10369418;28;20525;-58
2022/07/08 21:23:14;;;;;;;2.47;1.42;;;;;;;;;;10364036;28;20034;-57
2022/07/08 21:28:15;;;;;;;2.88;1.30;;;;;;;;;;10368465;28;20592;-58
2022/07/08 21:33:16;;;;;;;2.60;1.10;;;;;;;;;;10356545;28;20035;-58
2022/07/08 21:38:16;;;;;;;2.47;1.30;;;;;;;;;;10364085;28;20042;-58
2022/07/08 21:43:17;;;;;;;1.80;1.30;;;;;;;;;;10362606;28;20270;-58
2022/07/08 21:48:17;;;;;;;2.97;1.40;;;;;;;;;;10369893;28;20030;-58
2022/07/08 21:53:18;;;;;;;3.75;1.42;;;;;;;;;;10362314;28;20030;-58
2022/07/08 21:58:18;;;;;;;2.65;1.33;;;;;;;;;;10349676;28;20052;-58
2022/07/08 22:03:19;;;;;;;6.18;1.42;;;;;;;;;;10362642;28;20061;-58
2022/07/08 22:08:20;;;;;;;2.72;1.20;;;;;;;;;;10363371;28;20037;-58
2022/07/08 22:13:20;;;;;;;3.03;1.33;;;;;;;;;;10362587;28;20380;-58
2022/07/08 22:18:21;;;;;;;2.42;1.55;;;;;;;;;;10366288;28;20037;-58
2022/07/08 22:23:22;;;;;;;3.28;1.52;;;;;;;;;;10352719;28;20062;-58
2022/07/08 22:28:22;;;;;;;3.05;1.40;;;;;;;;;;10365798;28;20117;-58
2022/07/08 22:33:23;;;;;;;3.65;1.38;;;;;;;;;;10362002;28;20477;-58
2022/07/08 22:38:23;;;;;;;5.90;1.50;;;;;;;;;;10368594;28;20390;-58
2022/07/08 22:43:24;;;;;;;1.58;1.30;;;;;;;;;;10354016;28;20030;-58
2022/07/08 22:48:24;;;;;;;6.05;1.83;;;;;;;;;;10341578;28;20038;-58
2022/07/08 22:53:25;;;;;;;4.15;1.67;;;;;;;;;;10360092;28;20428;-58
2022/07/08 22:58:26;;;;;;;1.95;1.75;;;;;;;;;;10370251;28;20072;-57
2022/07/08 23:03:26;;;;;;;3.85;1.20;;;;;;;;;;10369367;28;20485;-56
2022/07/08 23:08:27;;;;;;;4.30;1.50;;;;;;;;;;10363726;28;20029;-54
2022/07/08 23:13:27;;;;;;;23.88;1.67;;;;;;;;;;10352012;28;20033;-60
2022/07/08 23:18:28;;;;;;;13.93;3.20;;;;;;;;;;10362880;28;20084;-58
2022/07/08 23:23:29;;;;;;;29.38;2.92;;;;;;;;;;10356800;28;20149;-59
2022/07/08 23:28:29;;;;;;;15.32;2.22;;;;;;;;;;10356207;28;20034;-59
2022/07/08 23:33:30;;;;;;;5.97;1.77;;;;;;;;;;10342266;28;20157;-59
2022/07/08 23:38:30;;;;;;;14.93;2.45;;;;;;;;;;10353875;28;20029;-59
2022/07/08 23:43:31;;;;;;;11.07;2.05;;;;;;;;;;10363274;28;20034;-59
2022/07/08 23:48:33;;;;;;;24.95;2.15;;;;;;;;;;10360253;28;20022;-59
2022/07/08 23:53:34;;;;;;;17.70;2.42;;;;;;;;;;10347240;28;20038;-59
2022/07/08 23:58:35;;;;;;;14.55;2.38;;;;;;;;;;10341150;28;20265;-59
